createdAt,value
2023-01-29T00:01:58.751Z,102657.06
2023-01-29T00:04:28.127Z,102651.69
2023-01-29T00:06:55.974Z,102650.88
2023-01-29T00:09:23.787Z,102652.69
2023-01-29T00:11:51.671Z,102649.19
2023-01-29T00:14:20.175Z,102651.00
2023-01-29T00:16:47.971Z,102653.72
2023-01-29T00:19:15.963Z,102636.75
2023-01-29T00:21:45.089Z,102628.72
2023-01-29T00:24:13.088Z,102633.22
2023-01-29T00:26:42.419Z,102637.75
2023-01-29T00:29:10.425Z,102639.53
2023-01-29T00:31:38.351Z,102627.91
2023-01-29T00:34:08.196Z,102624.34
2023-01-29T00:36:35.988Z,102622.59
2023-01-29T00:39:10.830Z,102627.03
2023-01-29T00:41:56.766Z,102627.13
2023-01-29T00:44:42.186Z,102623.56
2023-01-29T00:47:30.683Z,102624.50
2023-01-29T00:49:58.734Z,102629.91
2023-01-29T00:52:26.896Z,102633.50
2023-01-29T00:54:57.486Z,102631.69
2023-01-29T00:57:26.966Z,102622.75
2023-01-29T00:59:55.382Z,102620.06
2023-01-29T01:02:41.607Z,102616.53
2023-01-29T01:05:14.042Z,102617.44
2023-01-29T01:07:42.180Z,102628.22
2023-01-29T01:10:24.403Z,102624.59
2023-01-29T01:12:55.922Z,102628.22
2023-01-29T01:15:24.597Z,102627.31
2023-01-29T01:17:56.640Z,102632.66
2023-01-29T01:20:25.185Z,102641.69
2023-01-29T01:22:55.158Z,102638.06
2023-01-29T01:25:25.606Z,102636.25
2023-01-29T01:27:54.076Z,102638.94
2023-01-29T01:30:22.160Z,102631.78
2023-01-29T01:32:50.321Z,102629.09
2023-01-29T01:35:18.256Z,102628.19
2023-01-29T01:37:46.083Z,102627.31
2023-01-29T01:40:18.396Z,102608.50
2023-01-29T01:42:49.283Z,102604.91
2023-01-29T01:45:21.800Z,102587.00
2023-01-29T01:47:53.721Z,102591.50
2023-01-29T01:50:25.857Z,102596.88
2023-01-29T01:52:56.518Z,102597.81
2023-01-29T01:55:27.419Z,102594.25
2023-01-29T01:58:00.588Z,102596.94
2023-01-29T02:00:28.589Z,102588.28
2023-01-29T02:03:14.272Z,102594.38
2023-01-29T02:06:00.001Z,102603.34
2023-01-29T02:08:50.527Z,102600.66
2023-01-29T02:11:19.112Z,102600.72
2023-01-29T02:13:53.506Z,102602.53
2023-01-29T02:16:26.466Z,102598.06
2023-01-29T02:18:56.622Z,102594.53
2023-01-29T02:21:47.029Z,102598.97
2023-01-29T02:24:41.226Z,102611.56
2023-01-29T02:27:12.665Z,102607.13
2023-01-29T02:29:51.532Z,102602.63
2023-01-29T02:32:29.793Z,102612.50
2023-01-29T02:35:28.270Z,102622.34
2023-01-29T02:38:02.780Z,102633.13
2023-01-29T02:40:36.121Z,102630.41
2023-01-29T02:43:16.045Z,102642.03
2023-01-29T02:45:50.256Z,102633.06
2023-01-29T02:48:23.573Z,102642.91
2023-01-29T02:50:57.953Z,102648.28
2023-01-29T02:53:34.434Z,102644.69
2023-01-29T02:56:08.512Z,102645.59
2023-01-29T02:58:40.747Z,102648.28
2023-01-29T03:01:16.146Z,102627.69
2023-01-29T03:03:46.863Z,102626.78
2023-01-29T03:06:22.358Z,102627.63
2023-01-29T03:08:56.896Z,102629.41
2023-01-29T03:11:24.922Z,102626.75
2023-01-29T03:13:57.852Z,102607.03
2023-01-29T03:16:32.180Z,102615.31
2023-01-29T03:19:06.315Z,102609.78
2023-01-29T03:21:55.306Z,102613.31
2023-01-29T03:24:49.462Z,102615.16
2023-01-29T03:27:39.189Z,102607.13
2023-01-29T03:30:29.435Z,102616.97
2023-01-29T03:33:12.182Z,102617.03
2023-01-29T03:35:48.403Z,102614.34
2023-01-29T03:38:17.104Z,102622.41
2023-01-29T03:40:49.608Z,102630.47
2023-01-29T03:43:32.197Z,102631.34
2023-01-29T03:46:06.028Z,102636.75
2023-01-29T03:48:39.594Z,102627.78
2023-01-29T03:51:17.150Z,102623.31
2023-01-29T03:53:52.614Z,102618.84
2023-01-29T03:56:34.172Z,102626.00
2023-01-29T03:59:11.099Z,102620.63
2023-01-29T04:02:02.541Z,102620.69
2023-01-29T04:04:34.133Z,102618.91
2023-01-29T04:07:10.412Z,102624.31
2023-01-29T04:09:44.089Z,102614.47
2023-01-29T04:12:15.083Z,102617.19
2023-01-29T04:14:46.328Z,102606.47
2023-01-29T04:17:19.749Z,102597.50
2023-01-29T04:20:13.212Z,102603.78
2023-01-29T04:22:47.093Z,102599.31
2023-01-29T04:25:18.326Z,102592.16
2023-01-29T04:27:54.597Z,102585.88
2023-01-29T04:30:35.744Z,102575.13
2023-01-29T04:33:17.997Z,102572.44
2023-01-29T04:36:19.019Z,102572.44
2023-01-29T04:39:00.599Z,102566.16
2023-01-29T04:41:34.435Z,102565.25
2023-01-29T04:44:09.607Z,102567.91
2023-01-29T04:46:45.311Z,102568.78
2023-01-29T04:49:26.224Z,102570.56
2023-01-29T04:52:01.367Z,102567.88
2023-01-29T04:54:36.432Z,102575.03
2023-01-29T04:57:14.944Z,102566.94
2023-01-29T04:59:46.849Z,102560.69
2023-01-29T05:02:14.863Z,102566.06
2023-01-29T05:04:45.754Z,102559.75
2023-01-29T05:07:16.253Z,102560.66
2023-01-29T05:09:46.439Z,102559.81
2023-01-29T05:12:17.012Z,102564.28
2023-01-29T05:14:46.930Z,102562.50
2023-01-29T05:17:17.369Z,102557.16
2023-01-29T05:19:45.835Z,102555.38
2023-01-29T05:22:18.662Z,102563.41
2023-01-29T05:24:46.588Z,102543.75
2023-01-29T05:27:36.255Z,102538.38
2023-01-29T05:30:04.672Z,102547.38
2023-01-29T05:32:32.478Z,102548.28
2023-01-29T05:35:00.377Z,102550.97
2023-01-29T05:37:29.481Z,102542.94
2023-01-29T05:39:57.299Z,102546.50
2023-01-29T05:42:25.107Z,102542.03
2023-01-29T05:44:52.956Z,102537.56
2023-01-29T05:47:20.875Z,102534.88
2023-01-29T05:49:48.706Z,102533.97
2023-01-29T05:52:16.459Z,102529.50
2023-01-29T05:54:45.675Z,102535.75
2023-01-29T05:57:13.483Z,102535.72
2023-01-29T05:59:41.323Z,102542.00
2023-01-29T06:02:09.083Z,102539.28
2023-01-29T06:04:37.061Z,102541.94
2023-01-29T06:07:05.172Z,102544.63
2023-01-29T06:09:33.007Z,102557.13
2023-01-29T06:12:02.578Z,102555.31
2023-01-29T06:14:30.355Z,102553.50
2023-01-29T06:16:58.113Z,102562.44
2023-01-29T06:19:26.132Z,102565.13
2023-01-29T06:21:53.859Z,102570.50
2023-01-29T06:24:21.749Z,102573.16
2023-01-29T06:26:49.563Z,102571.38
2023-01-29T06:29:18.748Z,102581.22
2023-01-29T06:31:46.603Z,102585.69
2023-01-29T06:34:14.448Z,102594.59
2023-01-29T06:36:42.637Z,102594.59
2023-01-29T06:39:10.731Z,102596.44
2023-01-29T06:41:38.500Z,102598.16
2023-01-29T06:44:06.654Z,102595.44
2023-01-29T06:46:35.819Z,102592.75
2023-01-29T06:49:03.727Z,102599.03
2023-01-29T06:51:31.540Z,102595.44
2023-01-29T06:53:59.387Z,102592.69
2023-01-29T06:56:27.317Z,102585.53
2023-01-29T06:58:55.238Z,102586.44
2023-01-29T07:01:35.242Z,102572.09
2023-01-29T07:04:05.293Z,102570.28
2023-01-29T07:06:33.433Z,102574.75
2023-01-29T07:09:01.364Z,102573.84
2023-01-29T07:11:29.155Z,102576.53
2023-01-29T07:13:57.011Z,102572.00
2023-01-29T07:16:25.044Z,102565.72
2023-01-29T07:18:53.215Z,102572.00
2023-01-29T07:21:22.392Z,102584.50
2023-01-29T07:23:50.203Z,102582.72
2023-01-29T07:26:18.435Z,102584.53
2023-01-29T07:28:46.211Z,102590.78
2023-01-29T07:31:15.449Z,102590.78
2023-01-29T07:33:44.267Z,102589.88
2023-01-29T07:36:13.234Z,102585.41
2023-01-29T07:38:42.536Z,102583.59
2023-01-29T07:41:11.314Z,102577.28
2023-01-29T07:43:39.209Z,102576.38
2023-01-29T07:46:07.014Z,102579.06
2023-01-29T07:48:35.180Z,102569.19
2023-01-29T07:51:03.315Z,102571.84
2023-01-29T07:53:31.907Z,102565.53
2023-01-29T07:56:01.104Z,102572.69
2023-01-29T07:58:28.980Z,102578.94
2023-01-29T08:00:56.845Z,102578.03
2023-01-29T08:03:24.812Z,102565.47
2023-01-29T08:05:52.567Z,102551.97
2023-01-29T08:08:20.436Z,102551.03
2023-01-29T08:10:48.557Z,102557.31
2023-01-29T08:13:17.993Z,102570.69
2023-01-29T08:15:46.228Z,102564.41
2023-01-29T08:18:14.062Z,102568.84
2023-01-29T08:20:41.867Z,102567.94
2023-01-29T08:23:13.660Z,102566.97
2023-01-29T08:25:42.114Z,102553.53
2023-01-29T08:28:10.197Z,102552.63
2023-01-29T08:30:39.870Z,102544.50
2023-01-29T08:33:07.792Z,102540.94
2023-01-29T08:35:35.602Z,102536.41
2023-01-29T08:38:04.636Z,102548.03
2023-01-29T08:40:34.970Z,102552.50
2023-01-29T08:43:06.182Z,102552.50
2023-01-29T08:45:36.604Z,102560.56
2023-01-29T08:48:06.448Z,102565.88
2023-01-29T08:50:35.408Z,102563.22
2023-01-29T08:53:05.421Z,102565.84
2023-01-29T08:55:33.231Z,102567.63
2023-01-29T08:58:01.005Z,102563.16
2023-01-29T09:00:28.924Z,102566.72
2023-01-29T09:02:56.731Z,102568.50
2023-01-29T09:05:26.055Z,102560.41
2023-01-29T09:07:54.335Z,102548.69
2023-01-29T09:10:22.229Z,102537.91
2023-01-29T09:12:50.123Z,102544.19
2023-01-29T09:15:18.321Z,102536.09
2023-01-29T09:17:46.329Z,102542.34
2023-01-29T09:20:14.195Z,102542.28
2023-01-29T09:22:43.392Z,102536.88
2023-01-29T09:25:11.949Z,102534.19
2023-01-29T09:27:39.996Z,102525.19
2023-01-29T09:30:08.827Z,102526.97
2023-01-29T09:32:53.084Z,102527.84
2023-01-29T09:35:22.780Z,102520.63
2023-01-29T09:37:52.697Z,102517.03
2023-01-29T09:40:27.093Z,102508.94
2023-01-29T09:42:58.973Z,102514.31
2023-01-29T09:45:29.478Z,102512.50
2023-01-29T09:48:01.369Z,102500.84
2023-01-29T09:50:33.589Z,102486.41
2023-01-29T09:53:13.625Z,102501.63
2023-01-29T09:55:47.456Z,102507.00
2023-01-29T09:58:20.501Z,102500.69
2023-01-29T10:00:58.981Z,102492.59
2023-01-29T10:03:42.415Z,102493.44
2023-01-29T10:06:24.473Z,102490.72
2023-01-29T10:09:17.750Z,102487.13
2023-01-29T10:11:56.905Z,102489.81
2023-01-29T10:14:37.947Z,102495.16
2023-01-29T10:17:22.860Z,102494.19
2023-01-29T10:20:04.579Z,102498.63
2023-01-29T10:22:58.725Z,102490.53
2023-01-29T10:25:28.810Z,102497.69
2023-01-29T10:28:00.624Z,102492.25
2023-01-29T10:30:33.028Z,102495.78
2023-01-29T10:33:04.298Z,102498.50
2023-01-29T10:35:37.296Z,102502.03
2023-01-29T10:38:16.613Z,102493.41
2023-01-29T10:40:50.372Z,102498.44
2023-01-29T10:43:25.517Z,102493.81
2023-01-29T10:46:01.439Z,102491.09
2023-01-29T10:48:54.572Z,102475.78
2023-01-29T10:51:36.527Z,102473.06
2023-01-29T10:54:22.595Z,102465.84
2023-01-29T10:57:02.903Z,102463.13
2023-01-29T10:59:49.973Z,102450.47
2023-01-29T11:02:21.344Z,102446.84
2023-01-29T11:04:49.554Z,102447.72
2023-01-29T11:07:20.894Z,102435.06
2023-01-29T11:09:57.284Z,102434.09
2023-01-29T11:12:30.672Z,102429.56
2023-01-29T11:15:04.981Z,102427.66
2023-01-29T11:17:32.889Z,102431.19
2023-01-29T11:20:00.705Z,102429.28
2023-01-29T11:22:29.772Z,102423.84
2023-01-29T11:25:16.505Z,102430.03
2023-01-29T11:27:48.123Z,102434.53
2023-01-29T11:30:22.705Z,102427.28
2023-01-29T11:32:54.058Z,102420.97
2023-01-29T11:35:24.535Z,102420.94
2023-01-29T11:37:52.947Z,102414.59
2023-01-29T11:40:45.235Z,102407.41
2023-01-29T11:43:30.569Z,102405.56
2023-01-29T11:46:01.793Z,102410.97
2023-01-29T11:48:40.607Z,102401.00
2023-01-29T11:51:11.459Z,102384.88
2023-01-29T11:53:41.679Z,102387.53
2023-01-29T11:56:23.478Z,102374.88
2023-01-29T11:58:57.584Z,102367.75
2023-01-29T12:01:33.380Z,102365.94
2023-01-29T12:04:02.338Z,102357.84
2023-01-29T12:06:36.773Z,102357.81
2023-01-29T12:09:11.834Z,102355.09
2023-01-29T12:11:39.716Z,102356.00
2023-01-29T12:14:27.941Z,102344.28
2023-01-29T12:16:59.398Z,102329.94
2023-01-29T12:19:36.042Z,102320.00
2023-01-29T12:22:10.637Z,102306.53
2023-01-29T12:24:46.450Z,102304.69
2023-01-29T12:27:20.703Z,102304.69
2023-01-29T12:29:56.170Z,102289.34
2023-01-29T12:32:33.452Z,102282.13
2023-01-29T12:35:07.389Z,102265.97
2023-01-29T12:37:42.167Z,102251.56
2023-01-29T12:40:15.737Z,102248.88
2023-01-29T12:42:49.151Z,102241.66
2023-01-29T12:45:21.017Z,102245.25
2023-01-29T12:47:51.203Z,102238.97
2023-01-29T12:50:22.144Z,102232.63
2023-01-29T12:52:53.999Z,102228.13
2023-01-29T12:55:25.697Z,102219.16
2023-01-29T12:57:58.170Z,102212.84
2023-01-29T13:00:30.734Z,102220.03
2023-01-29T13:03:02.856Z,102212.84
2023-01-29T13:05:36.067Z,102199.38
2023-01-29T13:08:08.552Z,102186.78
2023-01-29T13:10:42.246Z,102187.63
2023-01-29T13:13:18.012Z,102184.84
2023-01-29T13:15:49.446Z,102177.66
2023-01-29T13:18:35.072Z,102185.72
2023-01-29T13:21:03.312Z,102179.44
2023-01-29T13:23:35.423Z,102174.88
2023-01-29T13:26:03.788Z,102189.28
2023-01-29T13:28:32.026Z,102182.88
2023-01-29T13:31:25.355Z,102181.94
2023-01-29T13:33:56.264Z,102183.75
2023-01-29T13:36:29.370Z,102184.56
2023-01-29T13:39:00.274Z,102184.22
2023-01-29T13:41:36.904Z,102194.47
2023-01-29T13:44:09.176Z,102187.16
2023-01-29T13:46:42.795Z,102188.00
2023-01-29T13:49:29.165Z,102185.25
2023-01-29T13:51:58.396Z,102189.75
2023-01-29T13:54:28.477Z,102192.38
2023-01-29T13:57:02.219Z,102188.69
2023-01-29T13:59:53.301Z,102191.38
2023-01-29T14:02:25.421Z,102190.50
2023-01-29T14:04:53.653Z,102187.81
2023-01-29T14:07:50.393Z,102189.50
2023-01-29T14:10:21.328Z,102185.97
2023-01-29T14:12:53.734Z,102180.50
2023-01-29T14:15:30.276Z,102169.69
2023-01-29T14:18:19.390Z,102169.69
2023-01-29T14:21:02.362Z,102170.50
2023-01-29T14:23:46.762Z,102177.72
2023-01-29T14:26:28.343Z,102172.25
2023-01-29T14:29:08.661Z,102174.03
2023-01-29T14:31:45.712Z,102176.69
2023-01-29T14:34:23.549Z,102166.78
2023-01-29T14:36:56.184Z,102165.91
2023-01-29T14:39:33.227Z,102156.91
2023-01-29T14:42:05.018Z,102156.88
2023-01-29T14:44:59.331Z,102161.28
2023-01-29T14:47:56.175Z,102161.28
2023-01-29T14:50:44.518Z,102157.75
2023-01-29T14:53:17.667Z,102151.41
2023-01-29T14:55:46.223Z,102157.41
2023-01-29T14:58:17.377Z,102156.88
2023-01-29T15:00:50.658Z,102155.84
2023-01-29T15:03:23.412Z,102154.91
2023-01-29T15:05:53.662Z,102152.19
2023-01-29T15:08:30.151Z,102146.75
2023-01-29T15:11:19.167Z,102148.56
2023-01-29T15:13:53.241Z,102151.25
2023-01-29T15:16:25.985Z,102144.06
2023-01-29T15:18:58.231Z,102153.06
2023-01-29T15:21:27.522Z,102144.06
2023-01-29T15:24:06.030Z,102144.81
2023-01-29T15:26:34.770Z,102139.47
2023-01-29T15:29:04.854Z,102138.53
2023-01-29T15:31:33.565Z,102137.63
2023-01-29T15:34:07.460Z,102136.66
2023-01-29T15:36:39.819Z,102134.88
2023-01-29T15:39:16.389Z,102122.28
2023-01-29T15:41:44.464Z,102123.19
2023-01-29T15:44:16.274Z,102127.63
2023-01-29T15:46:48.139Z,102117.72
2023-01-29T15:49:21.662Z,102112.28
2023-01-29T15:51:57.456Z,102107.75
2023-01-29T15:54:26.952Z,102115.03
2023-01-29T15:56:55.565Z,102114.09
2023-01-29T15:59:26.471Z,102106.91
2023-01-29T16:01:54.843Z,102106.91
2023-01-29T16:04:26.853Z,102112.22
2023-01-29T16:06:57.242Z,102104.19
2023-01-29T16:09:27.480Z,102112.22
2023-01-29T16:11:59.785Z,102108.59
2023-01-29T16:14:29.563Z,102116.72
2023-01-29T16:16:57.445Z,102109.47
2023-01-29T16:19:28.391Z,102109.44
2023-01-29T16:22:01.277Z,102101.25
2023-01-29T16:24:31.067Z,102108.47
2023-01-29T16:27:01.085Z,102095.78
2023-01-29T16:29:32.651Z,102097.47
2023-01-29T16:32:02.893Z,102093.81
2023-01-29T16:34:33.779Z,102086.47
2023-01-29T16:37:06.090Z,102075.47
2023-01-29T16:39:37.257Z,102081.69
2023-01-29T16:42:23.302Z,102063.47
2023-01-29T16:44:56.618Z,102068.78
2023-01-29T16:47:36.061Z,102062.31
2023-01-29T16:50:20.847Z,102065.03
2023-01-29T16:52:58.676Z,102063.16
2023-01-29T16:55:27.089Z,102059.56
2023-01-29T16:57:57.009Z,102051.44
2023-01-29T17:00:28.030Z,102052.31
2023-01-29T17:03:00.594Z,102055.03
2023-01-29T17:05:30.525Z,102073.03
2023-01-29T17:08:00.302Z,102065.81
2023-01-29T17:10:29.948Z,102061.31
2023-01-29T17:12:59.699Z,102059.50
2023-01-29T17:15:34.097Z,102050.47
2023-01-29T17:18:02.193Z,102046.97
2023-01-29T17:20:31.692Z,102053.25
2023-01-29T17:23:01.021Z,102045.16
2023-01-29T17:25:30.071Z,102042.50
2023-01-29T17:28:01.624Z,102037.97
2023-01-29T17:30:33.783Z,102033.50
2023-01-29T17:33:02.834Z,102033.63
2023-01-29T17:35:30.758Z,102047.06
2023-01-29T17:37:59.956Z,102041.72
2023-01-29T17:40:36.979Z,102043.41
2023-01-29T17:43:05.048Z,102024.66
2023-01-29T17:45:32.841Z,102025.53
2023-01-29T17:48:00.886Z,102030.94
2023-01-29T17:50:31.959Z,102031.81
2023-01-29T17:53:02.677Z,102026.47
2023-01-29T17:55:30.529Z,102032.75
2023-01-29T17:57:58.340Z,102030.97
2023-01-29T18:00:26.227Z,102019.25
2023-01-29T18:02:54.322Z,102021.06
2023-01-29T18:05:22.186Z,102014.78
2023-01-29T18:07:52.171Z,102013.88
2023-01-29T18:10:23.012Z,102008.44
2023-01-29T18:12:50.867Z,102007.59
2023-01-29T18:15:19.868Z,101998.63
2023-01-29T18:17:48.975Z,101992.28
2023-01-29T18:20:20.432Z,101985.97
2023-01-29T18:22:48.787Z,101985.13
2023-01-29T18:25:19.269Z,101992.34
2023-01-29T18:27:48.969Z,101984.19
2023-01-29T18:30:17.382Z,101970.69
2023-01-29T18:32:47.151Z,101963.53
2023-01-29T18:35:15.285Z,101949.09
2023-01-29T18:37:43.198Z,101954.53
2023-01-29T18:40:13.784Z,101982.38
2023-01-29T18:42:41.713Z,101968.03
2023-01-29T18:45:12.072Z,101966.19
2023-01-29T18:47:40.990Z,101969.81
2023-01-29T18:50:09.771Z,101969.81
2023-01-29T18:52:37.642Z,101964.41
2023-01-29T18:55:05.982Z,101961.66
2023-01-29T18:58:29.196Z,101956.25
2023-01-29T19:00:24.871Z,101941.88
2023-01-29T19:02:52.675Z,101947.28
2023-01-29T19:05:22.804Z,101946.34
2023-01-29T19:07:50.951Z,101937.31
2023-01-29T19:10:19.418Z,101936.44
2023-01-29T19:12:47.693Z,101938.25
2023-01-29T19:15:16.470Z,101934.63
2023-01-29T19:17:45.815Z,101927.31
2023-01-29T19:20:13.947Z,101927.31
2023-01-29T19:22:43.131Z,101930.91
2023-01-29T19:25:11.482Z,101923.69
2023-01-29T19:27:39.434Z,101929.97
2023-01-29T19:30:08.567Z,101929.94
2023-01-29T19:32:36.403Z,101920.94
2023-01-29T19:35:06.385Z,101920.91
2023-01-29T19:37:34.243Z,101919.13
2023-01-29T19:40:02.088Z,101918.19
2023-01-29T19:42:29.901Z,101910.09
2023-01-29T19:44:57.778Z,101896.53
2023-01-29T19:47:25.632Z,101891.16
2023-01-29T19:49:55.784Z,101874.94
2023-01-29T19:52:52.197Z,101869.47
2023-01-29T19:55:20.909Z,101863.25
2023-01-29T19:57:49.214Z,101855.09
2023-01-29T20:00:18.362Z,101864.94
2023-01-29T20:02:46.237Z,101859.53
2023-01-29T20:05:18.335Z,101863.06
2023-01-29T20:07:49.701Z,101855.03
2023-01-29T20:10:18.161Z,101854.97
2023-01-29T20:12:46.912Z,101859.41
2023-01-29T20:15:15.668Z,101848.59
2023-01-29T20:17:43.634Z,101846.78
2023-01-29T20:20:12.254Z,101832.34
2023-01-29T20:22:40.114Z,101824.22
2023-01-29T20:25:13.511Z,101817.91
2023-01-29T20:27:41.679Z,101819.72
2023-01-29T20:30:10.929Z,101817.81
2023-01-29T20:32:38.967Z,101808.84
2023-01-29T20:35:07.951Z,101802.50
2023-01-29T20:37:35.819Z,101797.09
2023-01-29T20:40:03.741Z,101790.75
2023-01-29T20:42:33.063Z,101782.66
2023-01-29T20:45:00.930Z,101777.25
2023-01-29T20:47:28.827Z,101783.53
2023-01-29T20:49:56.751Z,101779.97
2023-01-29T20:52:25.236Z,101785.31
2023-01-29T20:54:53.443Z,101779.03
2023-01-29T20:57:21.429Z,101787.06
2023-01-29T20:59:50.601Z,101782.50
2023-01-29T21:02:18.617Z,101776.22
2023-01-29T21:04:46.725Z,101765.41
2023-01-29T21:07:14.667Z,101778.88
2023-01-29T21:09:42.993Z,101773.38
2023-01-29T21:12:11.151Z,101761.69
2023-01-29T21:14:38.977Z,101764.34
2023-01-29T21:17:08.176Z,101767.88
2023-01-29T21:19:35.997Z,101770.63
2023-01-29T21:22:04.633Z,101767.88
2023-01-29T21:24:32.479Z,101772.34
2023-01-29T21:27:00.307Z,101770.50
2023-01-29T21:29:28.585Z,101757.91
2023-01-29T21:31:56.393Z,101745.28
2023-01-29T21:34:25.862Z,101748.75
2023-01-29T21:36:53.697Z,101737.03
2023-01-29T21:39:24.310Z,101737.03
2023-01-29T21:42:10.349Z,101730.63
2023-01-29T21:44:38.863Z,101737.84
2023-01-29T21:47:12.332Z,101749.50
2023-01-29T21:49:43.127Z,101760.25
2023-01-29T21:52:12.718Z,101761.03
2023-01-29T21:54:41.395Z,101751.06
2023-01-29T21:57:14.882Z,101762.69
2023-01-29T21:59:43.315Z,101771.69
2023-01-29T22:02:16.013Z,101760.88
2023-01-29T22:04:45.229Z,101766.13
2023-01-29T22:07:13.913Z,101771.47
2023-01-29T22:09:42.010Z,101772.38
2023-01-29T22:12:10.065Z,101775.00
2023-01-29T22:14:37.898Z,101759.69
2023-01-29T22:17:06.350Z,101764.16
2023-01-29T22:19:34.115Z,101758.69
2023-01-29T22:22:03.308Z,101749.66
2023-01-29T22:24:31.127Z,101745.97
2023-01-29T22:26:58.991Z,101753.13
2023-01-29T22:29:26.842Z,101751.31
2023-01-29T22:31:56.520Z,101752.19
2023-01-29T22:34:24.339Z,101747.69
2023-01-29T22:36:52.720Z,101748.50
2023-01-29T22:39:21.966Z,101730.47
2023-01-29T22:41:49.780Z,101733.16
2023-01-29T22:44:17.557Z,101741.22
2023-01-29T22:46:45.642Z,101726.81
2023-01-29T22:49:13.523Z,101716.81
2023-01-29T22:51:41.517Z,101723.09
2023-01-29T22:54:09.308Z,101712.28
2023-01-29T22:56:38.480Z,101715.81
2023-01-29T22:59:06.280Z,101690.59
2023-01-29T23:01:34.079Z,101677.97
2023-01-29T23:04:01.951Z,101672.50
2023-01-29T23:06:29.748Z,101651.78
2023-01-29T23:08:57.510Z,101651.78
2023-01-29T23:11:25.282Z,101628.28
2023-01-29T23:13:55.515Z,101598.44
2023-01-29T23:16:26.932Z,101613.72
2023-01-29T23:18:56.636Z,101612.94
2023-01-29T23:21:25.532Z,101602.03
2023-01-29T23:23:55.322Z,101606.50
2023-01-29T23:26:40.823Z,101592.97
2023-01-29T23:29:10.301Z,101605.56
2023-01-29T23:31:38.091Z,101616.38
2023-01-29T23:34:06.570Z,101607.31
2023-01-29T23:36:34.347Z,101621.72
2023-01-29T23:39:02.116Z,101597.38
2023-01-29T23:41:29.881Z,101620.75
2023-01-29T23:43:57.619Z,101605.44
2023-01-29T23:46:26.871Z,101606.31
2023-01-29T23:48:54.716Z,101595.44
2023-01-29T23:51:22.502Z,101597.25
2023-01-29T23:53:50.400Z,101590.97
2023-01-29T23:56:18.265Z,101582.75
2023-01-29T23:58:46.255Z,101584.53
